x

Montauk Point -23 Nm Ssw Of Montauk Point, Ny (44017) Wave Buoy

2:50pm - Mon 25th May 2015 All times are EDT. -4 hours from GMT.

  • Sig Wave height 1.6ft
  • Swell Direction
  • Peak Period 5s
  • Average Period 4s
  • Wind
    11mph, 13mph gusts
  • Sea Temp 54°f
  • Air Temp 57°f
  • Sea Pressure 1024.2mb
  • Montauk Point -23 Nm Ssw Of Montauk Point, Ny
  • Montauk Point -23 Nm Ssw Of Montauk Point, Ny

More Historic Weather Station data

Upgrade to MSW Pro to gain access to the past 30 days of data for over 8000 Wavebouys and Weather Stations around the globe.

Join Pro

Comparision Forecast

View Surf forecast
   
Mon 05/25 2:50pm 1.6ft 5s 4s 11 13 mph 1024.2mb 54f 57f
1:50pm 2ft 5s 4s 11
mph
1025mb 55f 57f
12:50pm 2ft 4s 4s 9 11 mph 1025.5mb 54f 56f
11:50am 2.5ft 5s 4s 11 13 mph 1025.5mb 54f 56f
10:50am 2.5ft 5s 4s 11 13 mph 1026mb 54f 56f
9:50am 2.5ft 5s 4s 11 13 mph 1025.6mb 53f 56f
8:50am 2.5ft 5s 4s 9 11 mph 1026.1mb 53f 56f
7:50am 2.5ft 5s 4s 7
mph
1026mb 53f 55f
6:50am 3ft 5s 4s 9
mph
1025.9mb 53f 55f
5:50am 2.5ft 6s 4s 9
mph
1025.7mb 53f 55f
4:50am 2.5ft 6s 4s 11
mph
1025.2mb 53f 55f
3:50am 3ft 5s 4s 9
mph
1025mb 53f 55f
2:50am 2.5ft 5s 4s 9
mph
1025mb 53f 55f
1:50am 2.5ft 5s 4s 11
mph
1025.1mb 53f 56f
12:50am 3ft 5s 4s 11 13 mph 1025.3mb 53f 56f
Sun 05/24 11:50pm 3ft 5s 4s 16 18 mph 1025.4mb 53f 56f
10:50pm 3.5ft 5s 4s 13 16 mph 1025.8mb 53f 56f
9:50pm 3.5ft 5s 4s 16 20 mph 1025.7mb 53f 56f
8:50pm 3ft 5s 4s 18 20 mph 1025mb 53f 57f
7:50pm 3ft 5s 4s 18 20 mph 1024.9mb 53f 57f
6:50pm 3ft 5s 4s 18 20 mph 1024.9mb 53f 57f
5:50pm 3ft 5s 4s 20 22 mph 1024.7mb 53f 57f
4:50pm 3ft 5s 4s 18 20 mph 1025.3mb 53f 57f
3:50pm 3ft 5s 4s 20 22 mph 1025.5mb 53f 57f
2:50pm 3ft 5s 4s 20 22 mph 1025.6mb 53f 56f
1:50pm 3ft 5s 4s 20 22 mph 1026mb 53f 56f
12:50pm 3.5ft 5s 4s 18 20 mph 1027mb 53f 55f
11:50am 3.5ft 4s 4s 20 22 mph 1027.5mb 53f 55f
10:50am 2.5ft 5s 4s 18 22 mph 1027.7mb 53f 55f
9:50am 3ft 5s 4s 18 22 mph 1027.9mb 53f 55f
8:50am 2.5ft 5s 4s 18 20 mph 1028.2mb 52f 54f
7:50am 3.5ft 5s 4s 16 20 mph 1027.7mb 52f 54f
6:50am 3.5ft 5s 4s 16 18 mph 1027.8mb 52f 54f
5:50am 3.5ft 5s 4s 16 20 mph 1027.7mb 52f 54f
4:50am 3.5ft 5s 4s 16 20 mph 1027.5mb 52f 54f
3:50am 3.5ft 5s 4s 16 18 mph 1027.5mb 52f 54f
2:50am 3.5ft 5s 4s 18 20 mph 1027.5mb 52f 54f
1:50am 3ft 4s 4s 18 22 mph 1027.5mb 52f 54f
12:50am 2.5ft 4s 4s 18 22 mph 1027.8mb 52f 54f
Sat 05/23 11:50pm 3ft 4s 4s 16 20 mph 1028.1mb 52f 54f
10:50pm 2.5ft 4s 4s 18 20 mph 1028mb 53f 54f
9:50pm 2.5ft 3s 4s 18 20 mph 1028.1mb 53f 54f
8:50pm 2ft 4s 4s 13 18 mph 1027.7mb 53f 54f
7:50pm 2ft 4s 4s 11 13 mph 1027.7mb 53f 54f
6:50pm 2.5ft 4s 4s 13 16 mph 1027.9mb 53f 54f
5:50pm 2.5ft 6s 4s 16 18 mph 1027.9mb 53f 53f
4:50pm 2ft 6s 4s 16 18 mph 1028mb 53f 53f
3:50pm 1.6ft 8s 5s 13 16 mph 1028.5mb 53f 52f
2:50pm 2ft 9s 5s 9 11 mph 1029mb 53f 51f
1:50pm 2.5ft 8s 4s 11 13 mph 1029.2mb 53f 51f
12:50pm 2.5ft 7s 4s 16 18 mph 1029.3mb 53f 50f
11:50am 2.5ft 8s 4s 16 18 mph 1029.4mb 52f 49f
10:50am 2.5ft 3s 4s 16 18 mph 1029mb 52f 49f
9:50am 3.5ft 4s 4s 16 18 mph 1028.6mb 52f 49f
8:50am 3.5ft 4s 4s 20 22 mph 1027.7mb 52f 49f
7:50am 4ft 4s 4s 22 27 mph 1026.6mb 52f 50f
6:50am 3.5ft 4s 4s 22 29 mph 1025.8mb 52f 50f
5:50am 3ft 4s 4s 22 27 mph 1024.8mb 52f 51f
4:50am 2.5ft 8s 4s 20 25 mph 1023.7mb 52f 53f
3:50am 2ft 5s 4s 18 20 mph 1022.4mb 52f 54f
2:50am 2ft 5s 4s 11
mph
1021.3mb 52f 55f
1:50am 2.5ft 4s 5s 4 7 mph 1020.6mb 52f 54f
12:50am 2.5ft 4s 5s 11 13 mph 1019.7mb 53f 56f
Fri 05/22 11:50pm 2.5ft 4s 4s 13 16 mph 1019mb 52f 57f
10:50pm 2.5ft 4s 4s 9 11 mph 1017.9mb 53f 57f
9:50pm 2.5ft 5s 4s 9 11 mph 1016.7mb 52f 56f
8:50pm 3ft 5s 4s 11 13 mph 1015.7mb 53f 56f
7:50pm 3ft 7s 4s 13 16 mph 1014.6mb 53f 57f
6:50pm 3.5ft 8s 4s 13 16 mph 1013.7mb 54f 57f
5:50pm 3.5ft 4s 4s 18 20 mph 1013.3mb 54f 58f
4:50pm 3.5ft 5s 4s 20 25 mph 1012.9mb 55f 58f
3:50pm 3ft 4s 4s 20 22 mph 1012.7mb 55f 57f
2:50pm 2.5ft 3s 4s 20 22 mph 1012.5mb 55f 57f
1:50pm 2.5ft 4s 3s 18 22 mph 1012.2mb 55f 56f
12:50pm 1.6ft 10s 4s 16 20 mph 1012.2mb 55f 56f
11:50am 1.3ft 10s 4s 13 16 mph 1012.3mb 54f 55f
10:50am 1.3ft 8s 4s 13 16 mph 1012.1mb 54f 54f
9:50am 1ft 8s 5s 11 13 mph 1011.7mb 53f 53f
8:50am 1ft 8s 6s 9 11 mph 1011.2mb 53f 52f
7:50am 1ft 9s 6s 7 9 mph 1010.9mb 53f 51f
6:50am 1ft 8s 6s 9
mph
1010.8mb 53f 51f
5:50am 1.3ft 8s 6s 9
mph
1010.4mb 53f 50f
4:50am 1.3ft 8s 6s 9
mph
1010.1mb 53f 49f
3:50am 1.3ft 8s 5s 7 9 mph 1010.4mb 53f 49f
2:50am 1.3ft 8s 5s 7 9 mph 1011mb 53f 49f
1:50am 1.3ft 9s 5s 2 4 mph 1011.1mb 54f 50f
12:50am 1.3ft 8s 6s 7
mph
1011.2mb 54f 50f
Thu 05/21 11:50pm 1.3ft 8s 5s  -  2 mph 1012mb 54f 50f
10:50pm 1ft 8s 4s  -  2 mph 1012.7mb 54f 50f
9:50pm 1.3ft 8s 4s 4 7 mph 1013.9mb 54f 50f
8:50pm 1.3ft 8s 4s 11 16 mph 1014.3mb 54f 50f